Time;durP1;ratioP1;P1;durP2;ratioP2;P2;SDS_P1;SDS_P2;PMS_P1;PMS_P2;Temp;Humidity;BMP_temperature;BMP_pressure;BME280_temperature;BME280_humidity;BME280_pressure;Samples;Min_cycle;Max_cycle;Signal;HPM_P1;HPM_P2
2021/04/11 00:00:21;;;;;;;14.33;9.33;;;;;;;;;;5050514;28;20070;-78
2021/04/11 00:02:47;;;;;;;13.13;9.33;;;;;;;;;;5051759;28;20044;-78
2021/04/11 00:05:12;;;;;;;11.30;8.13;;;;;;;;;;5050597;28;20056;-78
2021/04/11 00:07:38;;;;;;;12.50;8.13;;;;;;;;;;5066869;28;20024;-78
2021/04/11 00:10:05;;;;;;;11.13;7.10;;;;;;;;;;5050445;28;20051;-77
2021/04/11 00:12:31;;;;;;;9.07;6.33;;;;;;;;;;5051817;28;20025;-78
2021/04/11 00:14:56;;;;;;;9.17;6.43;;;;;;;;;;5049884;28;20106;-78
2021/04/11 00:17:21;;;;;;;8.27;5.90;;;;;;;;;;5083643;28;20120;-78
2021/04/11 00:19:46;;;;;;;9.27;6.60;;;;;;;;;;5051805;28;20009;-78
2021/04/11 00:22:11;;;;;;;12.40;8.03;;;;;;;;;;5051702;28;20013;-78
2021/04/11 00:24:37;;;;;;;11.47;7.03;;;;;;;;;;5051857;28;20020;-78
2021/04/11 00:27:02;;;;;;;11.17;7.83;;;;;;;;;;5051506;28;20028;-78
2021/04/11 00:29:27;;;;;;;9.93;7.87;;;;;;;;;;5051263;28;20082;-78
2021/04/11 00:31:52;;;;;;;10.90;7.37;;;;;;;;;;5049927;28;20154;-78
2021/04/11 00:34:18;;;;;;;11.40;8.43;;;;;;;;;;5053648;28;20031;-78
2021/04/11 00:36:43;;;;;;;13.57;8.57;;;;;;;;;;5055289;28;20021;-78
2021/04/11 00:39:08;;;;;;;11.23;8.03;;;;;;;;;;5054073;28;20038;-78
2021/04/11 00:41:35;;;;;;;12.30;8.70;;;;;;;;;;5055141;28;20013;-78
2021/04/11 00:44:03;;;;;;;14.27;9.37;;;;;;;;;;5055738;28;20103;-80
2021/04/11 00:46:32;;;;;;;11.87;8.53;;;;;;;;;;5054850;28;20020;-80
2021/04/11 00:48:58;;;;;;;11.00;8.33;;;;;;;;;;5048106;28;20144;-80
2021/04/11 00:51:25;;;;;;;15.77;8.83;;;;;;;;;;5068950;28;20053;-80
2021/04/11 00:53:50;;;;;;;10.63;7.87;;;;;;;;;;5066878;28;20111;-80
2021/04/11 00:56:16;;;;;;;14.23;8.70;;;;;;;;;;5053715;28;20475;-80
2021/04/11 00:58:41;;;;;;;12.37;8.93;;;;;;;;;;5054916;28;20135;-80
2021/04/11 01:01:06;;;;;;;15.20;9.87;;;;;;;;;;5053590;28;20021;-80
2021/04/11 01:03:33;;;;;;;12.87;9.10;;;;;;;;;;5053570;28;20017;-80
2021/04/11 01:05:58;;;;;;;12.20;8.53;;;;;;;;;;5058758;28;20476;-80
2021/04/11 01:08:26;;;;;;;11.33;8.50;;;;;;;;;;5054817;28;20028;-80
2021/04/11 01:10:54;;;;;;;11.80;8.70;;;;;;;;;;5053199;28;20460;-80
2021/04/11 01:13:20;;;;;;;10.93;7.50;;;;;;;;;;5070124;28;20503;-80
2021/04/11 01:15:45;;;;;;;10.37;7.93;;;;;;;;;;5053305;28;20057;-81
2021/04/11 01:18:10;;;;;;;10.73;6.43;;;;;;;;;;5053330;28;20017;-80
2021/04/11 01:20:36;;;;;;;10.60;8.03;;;;;;;;;;5053049;28;20063;-81
2021/04/11 01:23:20;;;;;;;10.90;7.33;;;;;;;;;;5069586;28;20035;-81
2021/04/11 01:25:47;;;;;;;12.03;7.37;;;;;;;;;;5054094;28;20435;-80
2021/04/11 01:28:24;;;;;;;13.67;7.40;;;;;;;;;;5039074;28;20051;-80
2021/04/11 01:30:53;;;;;;;10.73;6.27;;;;;;;;;;5053116;28;20116;-80
2021/04/11 01:33:19;;;;;;;8.93;6.07;;;;;;;;;;5069478;28;20439;-80
2021/04/11 01:35:44;;;;;;;9.57;6.77;;;;;;;;;;5054397;28;20033;-80
2021/04/11 01:38:10;;;;;;;10.13;5.97;;;;;;;;;;5052968;28;20043;-80
2021/04/11 01:40:54;;;;;;;8.97;6.13;;;;;;;;;;5069468;28;20017;-80
2021/04/11 01:43:20;;;;;;;10.27;6.47;;;;;;;;;;5069632;28;20025;-80
2021/04/11 01:45:45;;;;;;;8.70;6.17;;;;;;;;;;5069212;28;20017;-80
2021/04/11 01:48:11;;;;;;;8.83;6.20;;;;;;;;;;5069836;28;20480;-81
2021/04/11 01:50:37;;;;;;;10.60;6.57;;;;;;;;;;5061371;28;20028;-81
2021/04/11 01:53:03;;;;;;;9.63;6.50;;;;;;;;;;5069418;28;20598;-81
2021/04/11 01:55:29;;;;;;;8.57;5.57;;;;;;;;;;5053650;28;20379;-81
2021/04/11 01:57:55;;;;;;;10.33;5.57;;;;;;;;;;5052374;28;20025;-80
2021/04/11 02:00:20;;;;;;;8.47;5.33;;;;;;;;;;5053818;28;20025;-81
2021/04/11 02:02:45;;;;;;;8.23;5.33;;;;;;;;;;5052449;28;20116;-81
2021/04/11 02:05:15;;;;;;;7.10;5.20;;;;;;;;;;5069364;28;20052;-81
2021/04/11 02:07:40;;;;;;;8.67;5.77;;;;;;;;;;5054037;28;20086;-81
2021/04/11 02:10:09;;;;;;;6.93;5.27;;;;;;;;;;5052576;28;20028;-81
2021/04/11 02:12:35;;;;;;;7.87;5.33;;;;;;;;;;5053227;28;20052;-81
2021/04/11 02:15:00;;;;;;;8.33;4.67;;;;;;;;;;5050112;28;20534;-81
2021/04/11 02:17:25;;;;;;;8.23;5.50;;;;;;;;;;5067077;28;20029;-80
2021/04/11 02:19:51;;;;;;;8.93;5.60;;;;;;;;;;5052163;28;20411;-80
2021/04/11 02:22:22;;;;;;;7.13;4.97;;;;;;;;;;5052378;28;20353;-81
2021/04/11 02:24:48;;;;;;;8.00;5.60;;;;;;;;;;5050560;28;20021;-80
2021/04/11 02:27:15;;;;;;;9.20;5.83;;;;;;;;;;5066847;28;20382;-80
2021/04/11 02:29:40;;;;;;;9.60;5.20;;;;;;;;;;5050733;28;20037;-80
2021/04/11 02:32:05;;;;;;;9.63;5.40;;;;;;;;;;5050389;28;20071;-80
2021/04/11 02:34:31;;;;;;;10.70;5.53;;;;;;;;;;5052013;28;20029;-81
2021/04/11 02:37:01;;;;;;;7.80;5.30;;;;;;;;;;5049411;28;20072;-81
2021/04/11 02:39:29;;;;;;;8.17;4.90;;;;;;;;;;5067381;28;20074;-80
2021/04/11 02:41:54;;;;;;;8.53;5.17;;;;;;;;;;5051279;28;20028;-80
2021/04/11 02:44:20;;;;;;;8.23;5.07;;;;;;;;;;5053230;28;20025;-80
2021/04/11 02:46:46;;;;;;;7.13;5.27;;;;;;;;;;5052822;28;20385;-80
2021/04/11 02:49:12;;;;;;;7.67;4.93;;;;;;;;;;5052039;28;20025;-80
2021/04/11 02:51:38;;;;;;;9.07;5.40;;;;;;;;;;5064158;28;20513;-81
2021/04/11 02:54:05;;;;;;;9.10;5.20;;;;;;;;;;5051808;28;20119;-80
2021/04/11 02:56:30;;;;;;;6.53;4.47;;;;;;;;;;5067428;28;20336;-80
2021/04/11 02:58:56;;;;;;;6.33;4.27;;;;;;;;;;5052421;28;20025;-80
2021/04/11 03:01:24;;;;;;;6.17;4.40;;;;;;;;;;5051474;28;20483;-81
2021/04/11 03:03:50;;;;;;;6.67;4.87;;;;;;;;;;5067963;28;20112;-80
2021/04/11 03:06:17;;;;;;;5.43;4.00;;;;;;;;;;5052315;28;20041;-81
2021/04/11 03:08:44;;;;;;;5.23;3.53;;;;;;;;;;5052898;28;20095;-80
2021/04/11 03:11:20;;;;;;;5.37;4.17;;;;;;;;;;5051221;28;20021;-80
2021/04/11 03:13:45;;;;;;;5.90;4.03;;;;;;;;;;5051020;28;20047;-80
2021/04/11 03:16:11;;;;;;;5.20;3.77;;;;;;;;;;5051439;28;20021;-80
2021/04/11 03:18:37;;;;;;;5.77;4.03;;;;;;;;;;5051398;28;20357;-81
2021/04/11 03:21:02;;;;;;;5.33;4.00;;;;;;;;;;5052374;28;20021;-80
2021/04/11 03:23:27;;;;;;;7.10;4.60;;;;;;;;;;5052235;28;20075;-80
2021/04/11 03:26:16;;;;;;;5.80;4.20;;;;;;;;;;5051002;28;20391;-80
2021/04/11 03:28:46;;;;;;;5.37;3.90;;;;;;;;;;5052781;28;20067;-80
2021/04/11 03:31:20;;;;;;;6.87;4.10;;;;;;;;;;5052347;28;20025;-81
2021/04/11 03:33:48;;;;;;;3.90;3.13;;;;;;;;;;5052106;28;20020;-80
2021/04/11 03:36:15;;;;;;;4.43;3.73;;;;;;;;;;5049917;28;20032;-80
2021/04/11 03:38:42;;;;;;;4.33;3.47;;;;;;;;;;5051088;28;20025;-80
2021/04/11 03:41:07;;;;;;;5.70;3.77;;;;;;;;;;5067585;28;20047;-80
2021/04/11 03:43:42;;;;;;;6.40;3.67;;;;;;;;;;5050857;28;20017;-80
2021/04/11 03:46:11;;;;;;;8.27;4.00;;;;;;;;;;5050857;28;20017;-80
2021/04/11 03:48:40;;;;;;;6.40;4.00;;;;;;;;;;5051951;28;20025;-80
2021/04/11 03:51:09;;;;;;;5.47;3.90;;;;;;;;;;5051943;28;20027;-80
2021/04/11 03:53:39;;;;;;;4.73;4.03;;;;;;;;;;5050575;28;20021;-80
2021/04/11 03:56:07;;;;;;;5.17;3.80;;;;;;;;;;5052028;28;20029;-80
2021/04/11 03:58:35;;;;;;;4.80;3.23;;;;;;;;;;5051803;28;20021;-80
2021/04/11 04:01:09;;;;;;;4.93;2.83;;;;;;;;;;5049664;28;20021;-80
2021/04/11 04:03:35;;;;;;;4.63;3.23;;;;;;;;;;5067379;28;20469;-80
2021/04/11 04:06:13;;;;;;;5.60;3.20;;;;;;;;;;5051516;28;20092;-80
2021/04/11 04:08:39;;;;;;;4.17;3.27;;;;;;;;;;5052963;28;20029;-80
2021/04/11 04:11:10;;;;;;;4.03;3.27;;;;;;;;;;5054442;28;20509;-80
2021/04/11 04:13:47;;;;;;;4.40;3.40;;;;;;;;;;5054548;28;20024;-80
2021/04/11 04:16:16;;;;;;;5.27;3.30;;;;;;;;;;5071065;28;20020;-80
2021/04/11 04:19:00;;;;;;;4.10;3.30;;;;;;;;;;5071248;28;20434;-81
2021/04/11 04:21:39;;;;;;;4.97;3.67;;;;;;;;;;5055259;28;20016;-80
2021/04/11 04:24:23;;;;;;;5.77;3.50;;;;;;;;;;5054637;28;20032;-80
2021/04/11 04:27:07;;;;;;;4.43;3.30;;;;;;;;;;5062087;28;20043;-80
2021/04/11 04:29:34;;;;;;;4.23;3.03;;;;;;;;;;5067175;28;20092;-80
2021/04/11 04:32:00;;;;;;;11.23;3.87;;;;;;;;;;5052610;28;20025;-81
2021/04/11 04:34:34;;;;;;;4.43;3.20;;;;;;;;;;5069251;28;20032;-80
2021/04/11 04:37:14;;;;;;;5.43;3.60;;;;;;;;;;5068664;28;20068;-80
2021/04/11 04:39:55;;;;;;;3.80;3.20;;;;;;;;;;5069352;28;20017;-80
2021/04/11 04:42:32;;;;;;;4.87;3.40;;;;;;;;;;5052837;28;20440;-81
2021/04/11 04:45:07;;;;;;;3.97;2.83;;;;;;;;;;5068697;28;20045;-81
2021/04/11 04:47:55;;;;;;;4.00;3.27;;;;;;;;;;5052301;28;20017;-80
2021/04/11 04:50:26;;;;;;;4.40;2.47;;;;;;;;;;5068989;28;20028;-80
2021/04/11 04:53:00;;;;;;;3.37;2.20;;;;;;;;;;5052380;28;20083;-80
2021/04/11 04:55:26;;;;;;;5.07;2.30;;;;;;;;;;5068392;28;20021;-81
2021/04/11 04:57:57;;;;;;;4.60;2.53;;;;;;;;;;5068209;28;20021;-80
2021/04/11 05:00:29;;;;;;;2.95;2.38;;;;;;;;;;5060499;28;20079;-80
2021/04/11 05:03:01;;;;;;;2.47;1.77;;;;;;;;;;5054815;28;20021;-81
2021/04/11 05:05:28;;;;;;;3.22;2.28;;;;;;;;;;5055111;28;20013;-80
2021/04/11 05:08:05;;;;;;;2.50;2.00;;;;;;;;;;5054747;28;20074;-80
2021/04/11 05:10:50;;;;;;;2.67;1.87;;;;;;;;;;5053651;28;20029;-80
2021/04/11 05:13:21;;;;;;;2.90;1.53;;;;;;;;;;5053587;28;20112;-81
2021/04/11 05:15:48;;;;;;;2.90;1.47;;;;;;;;;;5064353;28;20476;-80
2021/04/11 05:18:26;;;;;;;2.13;1.53;;;;;;;;;;5039041;28;20100;-80
2021/04/11 05:20:57;;;;;;;4.60;1.47;;;;;;;;;;5053365;28;20018;-80
2021/04/11 05:23:27;;;;;;;2.33;1.73;;;;;;;;;;5054494;28;20369;-80
2021/04/11 05:25:59;;;;;;;3.33;1.40;;;;;;;;;;5053180;28;20025;-80
2021/04/11 05:28:31;;;;;;;1.77;1.50;;;;;;;;;;5069952;28;20024;-81
2021/04/11 05:31:05;;;;;;;5.43;1.80;;;;;;;;;;5062858;28;20029;-80
2021/04/11 05:33:33;;;;;;;1.80;1.30;;;;;;;;;;5054617;28;20474;-80
2021/04/11 05:36:20;;;;;;;4.70;1.40;;;;;;;;;;5052993;28;20112;-80
2021/04/11 05:39:03;;;;;;;1.83;1.20;;;;;;;;;;5069964;28;20468;-80
2021/04/11 05:41:32;;;;;;;1.60;1.50;;;;;;;;;;5069667;28;20025;-80
2021/04/11 05:44:08;;;;;;;3.13;1.30;;;;;;;;;;5053329;28;20405;-80
2021/04/11 05:46:43;;;;;;;3.53;1.80;;;;;;;;;;5069345;28;20021;-81
2021/04/11 05:49:10;;;;;;;2.10;1.40;;;;;;;;;;5053126;28;20021;-80
2021/04/11 05:51:43;;;;;;;3.13;1.40;;;;;;;;;;5053611;28;20021;-80
2021/04/11 05:54:21;;;;;;;1.93;1.30;;;;;;;;;;5052867;28;20025;-80
2021/04/11 05:56:58;;;;;;;4.07;1.57;;;;;;;;;;5053788;28;20032;-80
2021/04/11 05:59:28;;;;;;;4.27;1.57;;;;;;;;;;5052828;28;20016;-80
2021/04/11 06:01:56;;;;;;;2.10;1.50;;;;;;;;;;5052322;28;20029;-80
2021/04/11 06:04:29;;;;;;;2.50;1.73;;;;;;;;;;5069292;28;20009;-80
2021/04/11 06:07:00;;;;;;;2.47;1.60;;;;;;;;;;5061104;28;20135;-81
2021/04/11 06:09:34;;;;;;;2.50;1.83;;;;;;;;;;5053716;28;20084;-80
2021/04/11 06:12:11;;;;;;;1.80;1.57;;;;;;;;;;5052425;28;20032;-81
2021/04/11 06:14:42;;;;;;;3.17;1.80;;;;;;;;;;5052757;28;20085;-80
2021/04/11 06:17:09;;;;;;;3.17;1.93;;;;;;;;;;5066852;28;20048;-80
2021/04/11 06:19:34;;;;;;;2.23;1.47;;;;;;;;;;5051474;28;20021;-80
2021/04/11 06:22:00;;;;;;;1.77;1.50;;;;;;;;;;5051848;28;20035;-80
2021/04/11 06:24:31;;;;;;;1.85;1.40;;;;;;;;;;5052514;28;20028;-80
2021/04/11 06:26:56;;;;;;;2.67;1.70;;;;;;;;;;5051962;28;20021;-80
2021/04/11 06:29:26;;;;;;;3.50;1.70;;;;;;;;;;5053177;28;20127;-80
2021/04/11 06:31:58;;;;;;;1.80;1.50;;;;;;;;;;5053446;28;20112;-80
2021/04/11 06:34:26;;;;;;;2.73;1.53;;;;;;;;;;5053367;28;20028;-80
2021/04/11 06:36:54;;;;;;;2.57;1.67;;;;;;;;;;5052553;28;20270;-80
2021/04/11 06:39:26;;;;;;;5.03;1.70;;;;;;;;;;5051777;28;20104;-80
2021/04/11 06:41:51;;;;;;;4.90;1.83;;;;;;;;;;5068159;28;20045;-80
2021/04/11 06:44:40;;;;;;;3.17;2.00;;;;;;;;;;5057494;28;20413;-81
2021/04/11 06:47:11;;;;;;;4.03;1.93;;;;;;;;;;5052303;28;20032;-80
2021/04/11 06:49:54;;;;;;;6.70;2.10;;;;;;;;;;5052638;28;20021;-80
2021/04/11 06:52:27;;;;;;;3.33;1.90;;;;;;;;;;5051510;28;20029;-80
2021/04/11 06:54:52;;;;;;;;;;;;;;;;;;5066078;28;20013;-80
2021/04/11 06:57:17;;;;;;;3.45;2.20;;;;;;;;;;5051882;28;20011;-80
2021/04/11 06:59:45;;;;;;;4.93;2.40;;;;;;;;;;5051669;28;20079;-80
2021/04/11 07:02:14;;;;;;;5.67;1.93;;;;;;;;;;5060872;28;20025;-80
2021/04/11 07:04:54;;;;;;;3.43;2.17;;;;;;;;;;5054434;28;20461;-80
2021/04/11 07:07:19;;;;;;;5.13;2.23;;;;;;;;;;5051467;28;20033;-80
2021/04/11 07:09:47;;;;;;;2.47;2.00;;;;;;;;;;5051441;28;20120;-80
2021/04/11 07:12:31;;;;;;;4.83;2.00;;;;;;;;;;5050780;28;20033;-81
2021/04/11 07:14:56;;;;;;;4.77;2.23;;;;;;;;;;5071616;28;20123;-80
2021/04/11 07:17:40;;;;;;;7.70;2.00;;;;;;;;;;5052192;28;20116;-81
2021/04/11 07:20:18;;;;;;;5.13;2.10;;;;;;;;;;5040269;28;20178;-81
2021/04/11 07:22:58;;;;;;;5.20;2.20;;;;;;;;;;5050873;28;20499;-82
2021/04/11 07:25:23;;;;;;;8.50;2.40;;;;;;;;;;5056048;28;20025;-81
2021/04/11 07:27:48;;;;;;;6.23;2.10;;;;;;;;;;5050338;28;20028;-81
2021/04/11 07:30:31;;;;;;;6.45;2.58;;;;;;;;;;5048420;28;20038;-81
2021/04/11 07:33:02;;;;;;;8.02;2.45;;;;;;;;;;5050798;28;20076;-81
2021/04/11 07:35:44;;;;;;;5.53;2.13;;;;;;;;;;5050633;28;20104;-81
2021/04/11 07:38:12;;;;;;;6.30;2.50;;;;;;;;;;5047805;28;20536;-81
2021/04/11 07:40:37;;;;;;;6.53;2.50;;;;;;;;;;5048173;28;20017;-81
2021/04/11 07:43:12;;;;;;;7.88;2.47;;;;;;;;;;5049847;28;20028;-81
2021/04/11 07:45:51;;;;;;;6.90;2.70;;;;;;;;;;5049825;28;20029;-81
2021/04/11 07:48:35;;;;;;;11.23;2.80;;;;;;;;;;5043117;28;20104;-81
2021/04/11 07:51:09;;;;;;;8.20;2.30;;;;;;;;;;5050531;28;20032;-81
2021/04/11 07:53:53;;;;;;;6.80;2.57;;;;;;;;;;5051857;28;20013;-80
2021/04/11 07:56:18;;;;;;;3.73;2.30;;;;;;;;;;5049960;28;20120;-80
2021/04/11 07:58:47;;;;;;;6.67;2.40;;;;;;;;;;5066957;28;20526;-81
2021/04/11 08:01:18;;;;;;;7.20;2.67;;;;;;;;;;5050979;28;20059;-80
2021/04/11 08:04:08;;;;;;;6.43;2.17;;;;;;;;;;5051618;28;20029;-81
2021/04/11 08:06:59;;;;;;;5.87;2.10;;;;;;;;;;5051151;28;20039;-80
2021/04/11 08:09:40;;;;;;;5.63;2.40;;;;;;;;;;5049411;28;20485;-81
2021/04/11 08:12:14;;;;;;;5.97;2.00;;;;;;;;;;5042463;28;20025;-79
2021/04/11 08:14:50;;;;;;;4.53;2.07;;;;;;;;;;5051063;28;20032;-80
2021/04/11 08:17:35;;;;;;;8.90;2.10;;;;;;;;;;5051565;28;20021;-81
2021/04/11 08:20:00;;;;;;;5.50;2.03;;;;;;;;;;5049988;28;20024;-81
2021/04/11 08:22:44;;;;;;;4.57;1.77;;;;;;;;;;5050954;28;20058;-81
2021/04/11 08:25:25;;;;;;;6.50;1.83;;;;;;;;;;5049509;28;20376;-80
2021/04/11 08:27:56;;;;;;;8.60;2.10;;;;;;;;;;5051164;28;20056;-82
2021/04/11 08:30:21;;;;;;;3.43;1.77;;;;;;;;;;5051305;28;20496;-81
2021/04/11 08:33:06;;;;;;;6.37;1.80;;;;;;;;;;5049919;28;20032;-81
2021/04/11 08:35:50;;;;;;;4.47;2.10;;;;;;;;;;5060045;28;20049;-81
2021/04/11 08:38:44;;;;;;;4.07;1.87;;;;;;;;;;5051080;28;20029;-81
2021/04/11 08:41:28;;;;;;;4.87;2.07;;;;;;;;;;5049894;28;20025;-81
2021/04/11 08:44:00;;;;;;;5.93;1.87;;;;;;;;;;5049809;28;20025;-81
2021/04/11 08:46:31;;;;;;;4.77;2.07;;;;;;;;;;5051309;28;20029;-81
2021/04/11 08:49:05;;;;;;;4.67;1.93;;;;;;;;;;5050483;28;20464;-81
2021/04/11 08:51:40;;;;;;;2.70;1.60;;;;;;;;;;5066913;28;20048;-81
2021/04/11 08:54:06;;;;;;;5.37;2.10;;;;;;;;;;5059639;28;20021;-81
2021/04/11 08:56:49;;;;;;;8.77;1.87;;;;;;;;;;5054658;28;20824;-81
2021/04/11 08:59:29;;;;;;;9.63;1.83;;;;;;;;;;5085369;28;20009;-81
2021/04/11 09:02:33;;;;;;;6.40;1.80;;;;;;;;;;5053620;28;20025;-82
2021/04/11 09:04:59;;;;;;;7.03;1.93;;;;;;;;;;5035246;28;20021;-81
2021/04/11 09:07:24;;;;;;;3.83;1.90;;;;;;;;;;5032578;28;20037;-81
2021/04/11 09:09:53;;;;;;;5.03;1.80;;;;;;;;;;5042915;28;20116;-80
2021/04/11 09:12:25;;;;;;;8.83;2.93;;;;;;;;;;5052403;28;20021;-81
2021/04/11 09:15:03;;;;;;;7.63;2.00;;;;;;;;;;5072026;28;20039;-81
2021/04/11 09:17:32;;;;;;;6.40;1.60;;;;;;;;;;5052228;28;20025;-81
2021/04/11 09:20:20;;;;;;;5.97;1.80;;;;;;;;;;5064517;28;20429;-81
2021/04/11 09:23:04;;;;;;;3.23;1.37;;;;;;;;;;5053396;28;20039;-81
2021/04/11 09:25:31;;;;;;;3.13;1.20;;;;;;;;;;5053317;28;20021;-81
2021/04/11 09:28:11;;;;;;;3.77;1.40;;;;;;;;;;5054478;28;20063;-81
2021/04/11 09:30:36;;;;;;;3.30;1.17;;;;;;;;;;5053164;28;20044;-80
2021/04/11 09:33:20;;;;;;;5.90;1.67;;;;;;;;;;5063065;28;20087;-79
2021/04/11 09:35:52;;;;;;;19.60;7.07;;;;;;;;;;5052361;28;20021;-79
2021/04/11 09:38:36;;;;;;;7.83;2.43;;;;;;;;;;5053003;28;20045;-79
2021/04/11 09:41:20;;;;;;;19.97;10.00;;;;;;;;;;5052579;28;20464;-79
2021/04/11 09:44:04;;;;;;;9.23;3.23;;;;;;;;;;5048595;28;20099;-79
2021/04/11 09:46:36;;;;;;;9.17;1.90;;;;;;;;;;5047751;28;20036;-79
2021/04/11 09:49:20;;;;;;;9.32;4.40;;;;;;;;;;5046286;28;20538;-80
2021/04/11 09:51:50;;;;;;;6.97;2.60;;;;;;;;;;5052611;28;20079;-79
2021/04/11 09:54:30;;;;;;;6.33;2.00;;;;;;;;;;5053327;28;20029;-79
2021/04/11 09:57:11;;;;;;;7.53;1.97;;;;;;;;;;5052637;28;20048;-79
2021/04/11 09:59:48;;;;;;;6.50;1.57;;;;;;;;;;5061643;28;20404;-79
2021/04/11 10:02:13;;;;;;;7.03;1.70;;;;;;;;;;5051431;28;20049;-79
2021/04/11 10:04:44;;;;;;;4.84;1.52;;;;;;;;;;5052782;28;20052;-79
2021/04/11 10:07:25;;;;;;;9.93;1.73;;;;;;;;;;5051557;28;20381;-79
2021/04/11 10:10:01;;;;;;;6.60;1.50;;;;;;;;;;5053443;28;20032;-79
2021/04/11 10:12:47;;;;;;;5.67;1.43;;;;;;;;;;5052217;28;20017;-79
2021/04/11 10:15:15;;;;;;;8.53;1.13;;;;;;;;;;5052013;28;20072;-79
2021/04/11 10:18:09;;;;;;;4.03;1.57;;;;;;;;;;5053359;28;20114;-79
2021/04/11 10:20:43;;;;;;;8.43;1.53;;;;;;;;;;5053097;28;20036;-80
2021/04/11 10:23:23;;;;;;;3.40;1.33;;;;;;;;;;5051737;28;20009;-81
2021/04/11 10:25:52;;;;;;;4.20;1.60;;;;;;;;;;5067010;28;20013;-81
2021/04/11 10:28:18;;;;;;;1.97;0.97;;;;;;;;;;5052900;28;20070;-81
2021/04/11 10:30:45;;;;;;;8.07;1.47;;;;;;;;;;5052832;28;20099;-81
2021/04/11 10:33:10;;;;;;;6.20;1.63;;;;;;;;;;5051340;28;20028;-81
2021/04/11 10:35:40;;;;;;;3.77;1.70;;;;;;;;;;5053383;28;20143;-81
2021/04/11 10:38:20;;;;;;;7.33;1.33;;;;;;;;;;5053781;28;20706;-81
2021/04/11 10:40:57;;;;;;;5.10;1.23;;;;;;;;;;5051192;28;20546;-81
2021/04/11 10:43:41;;;;;;;5.03;1.20;;;;;;;;;;5054689;28;20111;-81
2021/04/11 10:46:10;;;;;;;8.03;1.70;;;;;;;;;;5053025;28;20523;-82
2021/04/11 10:48:38;;;;;;;8.90;1.80;;;;;;;;;;5052014;28;20021;-81
2021/04/11 10:51:03;;;;;;;4.97;1.37;;;;;;;;;;5053993;28;20435;-82
2021/04/11 10:53:47;;;;;;;4.18;1.30;;;;;;;;;;5055687;28;20078;-83
2021/04/11 10:56:34;;;;;;;8.13;3.87;;;;;;;;;;5052618;28;20021;-81
2021/04/11 10:59:05;;;;;;;4.87;1.70;;;;;;;;;;5051519;28;20380;-82
2021/04/11 11:01:39;;;;;;;6.87;2.00;;;;;;;;;;5051425;28;20456;-82
2021/04/11 11:04:20;;;;;;;4.23;1.77;;;;;;;;;;5050693;28;20463;-82
2021/04/11 11:07:06;;;;;;;4.80;3.00;;;;;;;;;;5051492;28;20055;-82
2021/04/11 11:09:35;;;;;;;4.10;1.60;;;;;;;;;;5053068;28;20116;-82
2021/04/11 11:12:19;;;;;;;3.80;1.30;;;;;;;;;;5051269;28;20503;-82
2021/04/11 11:15:16;;;;;;;4.53;1.40;;;;;;;;;;5051836;28;20100;-82
2021/04/11 11:18:00;;;;;;;3.73;1.00;;;;;;;;;;5041071;28;20045;-82
2021/04/11 11:20:40;;;;;;;8.60;1.40;;;;;;;;;;5052195;28;20020;-82
2021/04/11 11:23:30;;;;;;;4.10;0.90;;;;;;;;;;5052141;28;20017;-82
2021/04/11 11:25:59;;;;;;;2.70;0.87;;;;;;;;;;5051397;28;20032;-82
2021/04/11 11:28:27;;;;;;;5.87;1.00;;;;;;;;;;5052282;28;20016;-82
2021/04/11 11:30:59;;;;;;;6.87;1.10;;;;;;;;;;5050610;28;20045;-82
2021/04/11 11:33:30;;;;;;;2.57;0.90;;;;;;;;;;5051901;28;20020;-82
2021/04/11 11:36:01;;;;;;;1.87;1.00;;;;;;;;;;5052453;28;20456;-82
2021/04/11 11:38:35;;;;;;;3.33;0.97;;;;;;;;;;5050314;28;20464;-82
2021/04/11 11:41:00;;;;;;;4.80;1.10;;;;;;;;;;5067513;28;20013;-83
2021/04/11 11:43:29;;;;;;;2.97;1.10;;;;;;;;;;5064541;28;20024;-83
2021/04/11 11:46:13;;;;;;;16.03;6.30;;;;;;;;;;5059843;28;20032;-84
2021/04/11 11:48:57;;;;;;;21.13;8.37;;;;;;;;;;5050647;28;20048;-85
2021/04/11 11:51:41;;;;;;;6.07;1.17;;;;;;;;;;5050050;28;20099;-83
2021/04/11 11:54:10;;;;;;;3.20;1.50;;;;;;;;;;5048399;28;20507;-84
2021/04/11 11:56:41;;;;;;;1.77;1.10;;;;;;;;;;5051319;28;20366;-83
2021/04/11 11:59:12;;;;;;;3.33;1.10;;;;;;;;;;5049379;28;20013;-83
2021/04/11 12:01:48;;;;;;;6.17;2.30;;;;;;;;;;5050316;28;20009;-83
2021/04/11 12:04:32;;;;;;;4.30;1.50;;;;;;;;;;5051357;28;20412;-83
2021/04/11 12:07:00;;;;;;;4.77;1.30;;;;;;;;;;5051647;28;20484;-83
2021/04/11 12:09:38;;;;;;;16.60;7.00;;;;;;;;;;5051391;28;20024;-82
2021/04/11 12:12:30;;;;;;;3.97;1.80;;;;;;;;;;5050187;28;20031;-83
2021/04/11 12:15:04;;;;;;;6.33;2.43;;;;;;;;;;5051458;28;20052;-81
2021/04/11 12:17:53;;;;;;;4.47;1.60;;;;;;;;;;5050066;28;20523;-82
2021/04/11 12:20:31;;;;;;;7.00;2.60;;;;;;;;;;5079550;28;20021;-82
2021/04/11 12:23:15;;;;;;;13.90;7.33;;;;;;;;;;5050165;28;20024;-82
2021/04/11 12:25:41;;;;;;;6.80;3.50;;;;;;;;;;5051779;28;20021;-82
2021/04/11 12:28:10;;;;;;;10.50;4.90;;;;;;;;;;5049670;28;20048;-82
2021/04/11 12:30:37;;;;;;;18.10;8.47;;;;;;;;;;5053838;28;20071;-82
2021/04/11 12:33:11;;;;;;;4.57;2.07;;;;;;;;;;5053938;28;20032;-82
2021/04/11 12:35:40;;;;;;;5.33;2.37;;;;;;;;;;5053527;28;20027;-82
2021/04/11 12:38:26;;;;;;;5.57;2.20;;;;;;;;;;5054758;28;20024;-81
2021/04/11 12:41:06;;;;;;;5.63;1.67;;;;;;;;;;5053800;28;20016;-81
2021/04/11 12:43:37;;;;;;;7.70;2.47;;;;;;;;;;5056661;28;20019;-82
2021/04/11 12:46:18;;;;;;;4.07;1.70;;;;;;;;;;5054113;28;20096;-82
2021/04/11 12:48:59;;;;;;;8.37;2.77;;;;;;;;;;5070534;28;20024;-82
2021/04/11 12:51:27;;;;;;;7.47;2.67;;;;;;;;;;5069036;28;20032;-81
2021/04/11 12:54:04;;;;;;;5.90;2.00;;;;;;;;;;5051893;28;20017;-81
2021/04/11 12:56:30;;;;;;;6.00;1.30;;;;;;;;;;5074925;28;20013;-81
2021/04/11 12:58:57;;;;;;;4.67;1.97;;;;;;;;;;5054440;28;20385;-81
2021/04/11 13:01:25;;;;;;;5.53;1.80;;;;;;;;;;5053480;28;20017;-81
2021/04/11 13:03:53;;;;;;;13.07;2.20;;;;;;;;;;5055398;28;20380;-81
2021/04/11 13:06:33;;;;;;;7.77;2.30;;;;;;;;;;5054707;28;20009;-81
2021/04/11 13:09:17;;;;;;;9.10;1.87;;;;;;;;;;5055185;28;20427;-80
2021/04/11 13:11:42;;;;;;;6.50;1.60;;;;;;;;;;5054779;28;20476;-81
2021/04/11 13:14:27;;;;;;;6.50;1.60;;;;;;;;;;5054933;28;20059;-81
2021/04/11 13:17:08;;;;;;;3.83;1.33;;;;;;;;;;5052172;28;20383;-81
2021/04/11 13:19:41;;;;;;;4.23;1.60;;;;;;;;;;5068610;28;20009;-81
2021/04/11 13:22:12;;;;;;;4.40;1.20;;;;;;;;;;5052850;28;20013;-81
2021/04/11 13:24:45;;;;;;;2.47;1.20;;;;;;;;;;5050749;28;20013;-81
2021/04/11 13:27:29;;;;;;;7.37;1.47;;;;;;;;;;5042672;28;20105;-81
2021/04/11 13:30:16;;;;;;;3.33;1.17;;;;;;;;;;5050928;28;20463;-80
2021/04/11 13:32:50;;;;;;;1.67;0.90;;;;;;;;;;5051948;28;20155;-80
2021/04/11 13:35:20;;;;;;;6.67;1.50;;;;;;;;;;5040798;28;20066;-80
2021/04/11 13:37:50;;;;;;;2.50;1.10;;;;;;;;;;5054274;28;20021;-80
2021/04/11 13:40:19;;;;;;;3.63;1.10;;;;;;;;;;5053609;28;20040;-80
2021/04/11 13:42:56;;;;;;;5.67;1.10;;;;;;;;;;5054008;28;20116;-82
2021/04/11 13:45:34;;;;;;;3.80;1.40;;;;;;;;;;5053983;28;20013;-81
2021/04/11 13:48:10;;;;;;;3.57;1.10;;;;;;;;;;5053508;28;20051;-80
2021/04/11 13:50:54;;;;;;;2.80;1.50;;;;;;;;;;5049213;28;20488;-80
2021/04/11 13:53:39;;;;;;;2.73;0.93;;;;;;;;;;5052908;28;20025;-80
2021/04/11 13:56:23;;;;;;;3.23;0.80;;;;;;;;;;5054306;28;20108;-80
2021/04/11 13:58:55;;;;;;;2.73;1.20;;;;;;;;;;5052386;28;20423;-80
2021/04/11 14:01:25;;;;;;;1.77;0.73;;;;;;;;;;5052040;28;20087;-80
2021/04/11 14:04:09;;;;;;;3.20;1.00;;;;;;;;;;5052236;28;20025;-80
2021/04/11 14:06:36;;;;;;;2.43;1.10;;;;;;;;;;5052165;28;20062;-80
2021/04/11 14:09:09;;;;;;;3.60;1.20;;;;;;;;;;5052356;28;20055;-80
2021/04/11 14:11:38;;;;;;;4.47;1.27;;;;;;;;;;5052198;28;20021;-80
2021/04/11 14:14:35;;;;;;;8.43;2.60;;;;;;;;;;5053599;28;20392;-80
2021/04/11 14:17:12;;;;;;;5.83;1.07;;;;;;;;;;5054260;28;20033;-80
2021/04/11 14:19:37;;;;;;;4.67;1.10;;;;;;;;;;5048610;28;20095;-80
2021/04/11 14:22:05;;;;;;;10.23;2.70;;;;;;;;;;5053329;28;20109;-80
2021/04/11 14:24:35;;;;;;;6.17;1.30;;;;;;;;;;5050204;28;20013;-81
2021/04/11 14:27:10;;;;;;;3.33;1.03;;;;;;;;;;5052835;28;20028;-80
2021/04/11 14:29:41;;;;;;;4.00;1.40;;;;;;;;;;5052445;28;20104;-80
2021/04/11 14:32:30;;;;;;;1.97;0.80;;;;;;;;;;5051006;28;20036;-80
2021/04/11 14:35:05;;;;;;;4.73;1.40;;;;;;;;;;5049281;28;20045;-80
2021/04/11 14:37:49;;;;;;;6.50;1.13;;;;;;;;;;5050749;28;20458;-79
2021/04/11 14:40:17;;;;;;;3.17;0.80;;;;;;;;;;5050711;28;20032;-78
2021/04/11 14:42:51;;;;;;;3.83;1.23;;;;;;;;;;5050686;28;20024;-78
2021/04/11 14:45:19;;;;;;;3.27;1.00;;;;;;;;;;5052499;28;20017;-81
2021/04/11 14:47:49;;;;;;;4.47;1.00;;;;;;;;;;5067890;28;20075;-81
2021/04/11 14:50:20;;;;;;;4.18;1.38;;;;;;;;;;5051469;28;20049;-81
2021/04/11 14:52:48;;;;;;;9.45;1.10;;;;;;;;;;5051379;28;20368;-81
2021/04/11 14:55:16;;;;;;;2.95;1.00;;;;;;;;;;5050977;28;20116;-81
2021/04/11 14:57:56;;;;;;;5.60;1.20;;;;;;;;;;5051953;28;20035;-80
2021/04/11 15:00:25;;;;;;;4.35;0.95;;;;;;;;;;5044201;28;20013;-81
2021/04/11 15:03:00;;;;;;;4.63;1.00;;;;;;;;;;5068163;28;20046;-81
2021/04/11 15:05:44;;;;;;;6.40;1.10;;;;;;;;;;5052425;28;20100;-81
2021/04/11 15:08:18;;;;;;;6.97;1.10;;;;;;;;;;5067298;28;20029;-80
2021/04/11 15:10:48;;;;;;;1.80;0.73;;;;;;;;;;5067543;28;20029;-80
2021/04/11 15:13:31;;;;;;;4.20;1.50;;;;;;;;;;5051343;28;20502;-80